Time;durP1;ratioP1;P1;durP2;ratioP2;P2;SDS_P1;SDS_P2;PMS_P1;PMS_P2;Temp;Humidity;BMP_temperature;BMP_pressure;BME280_temperature;BME280_humidity;BME280_pressure;Samples;Min_cycle;Max_cycle;Signal;HPM_P1;HPM_P2
2020/12/16 00:01:46;;;;;;;40.23;20.63;;;;;;;6.65;91.21;101248.13;5072984;28;20048;-68
2020/12/16 00:04:12;;;;;;;42.37;20.13;;;;;;;6.61;90.82;101250.19;5073863;28;20044;-68
2020/12/16 00:06:37;;;;;;;47.93;21.17;;;;;;;6.59;90.99;101252.13;5073774;28;20043;-68
2020/12/16 00:09:03;;;;;;;44.10;21.83;;;;;;;6.60;90.89;101256.44;5073901;28;20029;-68
2020/12/16 00:11:29;;;;;;;42.28;19.63;;;;;;;6.58;91.03;101247.81;5056077;28;20111;-68
2020/12/16 00:13:54;;;;;;;49.37;21.70;;;;;;;6.57;91.25;101251.41;5073781;28;20048;-68
2020/12/16 00:16:19;;;;;;;39.60;18.67;;;;;;;6.61;91.15;101255.50;5073429;28;20048;-68
2020/12/16 00:18:44;;;;;;;53.17;23.17;;;;;;;6.59;90.98;101254.78;5072790;28;20037;-68
2020/12/16 00:21:10;;;;;;;42.93;18.53;;;;;;;6.60;90.76;101250.31;5073697;28;20110;-68
2020/12/16 00:23:35;;;;;;;48.33;22.80;;;;;;;6.61;91.31;101257.31;5072590;28;20048;-68
2020/12/16 00:26:01;;;;;;;48.27;22.73;;;;;;;6.58;91.27;101253.09;5073217;28;20033;-68
2020/12/16 00:28:26;;;;;;;57.20;21.00;;;;;;;6.57;90.97;101259.38;5073482;28;20118;-68
2020/12/16 00:30:51;;;;;;;55.40;24.00;;;;;;;6.56;91.34;101265.66;5072175;28;20044;-68
2020/12/16 00:33:18;;;;;;;59.30;25.63;;;;;;;6.55;91.31;101262.16;5055836;28;20039;-68
2020/12/16 00:35:44;;;;;;;52.85;23.83;;;;;;;6.57;91.33;101271.78;5073139;28;20047;-67
2020/12/16 00:38:11;;;;;;;55.22;24.45;;;;;;;6.57;91.51;101272.63;5073330;28;20033;-68
2020/12/16 00:40:37;;;;;;;57.55;23.60;;;;;;;6.57;91.35;101277.09;5073264;28;20036;-68
2020/12/16 00:43:03;;;;;;;54.25;23.38;;;;;;;6.56;91.45;101276.25;5073068;28;20059;-68
2020/12/16 00:45:29;;;;;;;51.13;24.08;;;;;;;6.50;91.58;101276.75;5072094;28;20028;-67
2020/12/16 00:47:55;;;;;;;61.37;25.57;;;;;;;6.54;91.50;101280.84;5071966;28;20032;-68
2020/12/16 00:50:23;;;;;;;52.22;24.25;;;;;;;6.56;91.72;101284.22;5072112;28;20024;-68
2020/12/16 00:52:50;;;;;;;58.50;24.90;;;;;;;6.52;91.58;101283.59;5072009;28;20024;-68
2020/12/16 00:55:16;;;;;;;53.17;23.92;;;;;;;6.52;91.45;101293.38;5055295;28;20099;-68
2020/12/16 00:57:41;;;;;;;52.50;24.53;;;;;;;6.53;91.49;101297.72;5071609;28;20063;-68
2020/12/16 01:00:09;;;;;;;43.72;22.35;;;;;;;6.57;91.05;101298.31;5071919;28;20032;-68
2020/12/16 01:02:40;;;;;;;44.35;23.27;;;;;;;6.55;90.97;101306.41;5071765;28;20060;-68
2020/12/16 01:05:05;;;;;;;46.78;21.98;;;;;;;6.55;91.06;101309.91;5072565;28;20032;-68
2020/12/16 01:07:30;;;;;;;47.17;21.73;;;;;;;6.51;91.16;101297.84;5071575;28;20693;-68
2020/12/16 01:09:56;;;;;;;42.67;22.93;;;;;;;6.55;91.11;101304.63;5054934;28;20047;-68
2020/12/16 01:12:21;;;;;;;53.60;21.97;;;;;;;6.53;91.17;101305.66;5072765;28;20509;-68
2020/12/16 01:14:47;;;;;;;50.23;19.13;;;;;;;6.50;91.28;101308.56;5071551;28;20359;-68
2020/12/16 01:17:13;;;;;;;52.72;21.10;;;;;;;6.52;91.20;101304.00;5071330;28;20338;-68
2020/12/16 01:19:38;;;;;;;53.20;23.33;;;;;;;6.55;91.09;101309.03;5054944;28;20106;-68
2020/12/16 01:22:04;;;;;;;50.85;20.17;;;;;;;6.55;91.26;101309.91;5054910;28;20056;-68
2020/12/16 01:24:29;;;;;;;49.10;22.60;;;;;;;6.55;91.21;101304.63;5071237;28;20066;-68
2020/12/16 01:26:58;;;;;;;60.15;22.83;;;;;;;6.57;91.12;101311.59;5070944;28;20287;-68
2020/12/16 01:29:24;;;;;;;49.13;22.58;;;;;;;6.57;91.17;101316.91;5071284;28;20082;-68
2020/12/16 01:31:50;;;;;;;;;;;;;;;6.56;91.33;101313.41;5071719;28;20131;-68
2020/12/16 01:34:27;;;;;;;53.03;23.67;;;;;;;6.52;91.31;101304.84;5071361;28;20007;-68
2020/12/16 01:36:58;;;;;;;57.60;22.92;;;;;;;6.52;91.42;101314.59;5070795;28;20603;-68
2020/12/16 01:39:25;;;;;;;57.67;24.52;;;;;;;6.53;91.39;101316.28;5071143;28;20369;-68
2020/12/16 01:41:50;;;;;;;59.77;23.57;;;;;;;6.53;91.38;101305.66;5070746;28;20036;-68
2020/12/16 01:44:22;;;;;;;59.38;24.80;;;;;;;6.52;91.30;101309.31;5055134;28;20034;-68
2020/12/16 01:46:53;;;;;;;72.00;25.73;;;;;;;6.54;91.24;101312.69;5070653;28;20032;-68
2020/12/16 01:49:23;;;;;;;50.45;19.90;;;;;;;6.57;91.20;101331.00;5070998;28;20071;-68
2020/12/16 01:51:57;;;;;;;51.70;25.02;;;;;;;6.57;91.10;101333.66;5071115;28;20028;-68
2020/12/16 01:54:24;;;;;;;59.60;21.35;;;;;;;6.59;90.95;101338.84;5070899;28;20097;-68
2020/12/16 01:56:55;;;;;;;47.97;20.73;;;;;;;6.53;90.98;101341.03;5070432;28;20436;-68
2020/12/16 01:59:40;;;;;;;59.38;23.20;;;;;;;6.51;91.08;101347.41;5070763;28;20029;-68
2020/12/16 02:02:12;;;;;;;61.47;22.83;;;;;;;6.52;91.09;101347.28;5054564;28;20040;-69
2020/12/16 02:04:46;;;;;;;53.22;23.17;;;;;;;6.50;90.98;101351.03;5053989;28;20377;-68
2020/12/16 02:07:14;;;;;;;54.17;23.48;;;;;;;6.52;90.85;101365.00;5070553;28;20032;-69
2020/12/16 02:09:46;;;;;;;51.53;23.95;;;;;;;6.49;90.84;101365.25;5070683;28;20037;-69
2020/12/16 02:12:20;;;;;;;51.35;22.63;;;;;;;6.48;90.69;101361.75;5070692;28;20033;-69
2020/12/16 02:14:46;;;;;;;60.58;25.27;;;;;;;6.51;90.69;101361.53;5070649;28;20044;-69
2020/12/16 02:17:14;;;;;;;60.25;25.05;;;;;;;6.52;90.86;101362.34;5070128;28;20115;-69
2020/12/16 02:19:57;;;;;;;55.40;22.70;;;;;;;6.55;90.68;101364.75;5054174;28;20109;-69
2020/12/16 02:22:23;;;;;;;54.13;23.02;;;;;;;6.57;90.58;101360.19;5071314;28;20056;-69
2020/12/16 02:24:59;;;;;;;55.67;23.77;;;;;;;6.52;90.45;101368.50;5070325;28;20028;-69
2020/12/16 02:27:26;;;;;;;52.75;23.33;;;;;;;6.50;90.66;101358.97;5070100;28;20044;-69
2020/12/16 02:29:53;;;;;;;64.53;24.20;;;;;;;6.44;90.47;101362.09;5053869;28;20043;-69
2020/12/16 02:32:40;;;;;;;51.15;21.85;;;;;;;6.44;90.29;101365.63;5071169;28;20575;-69
2020/12/16 02:35:08;;;;;;;51.80;21.83;;;;;;;6.43;90.32;101373.69;5070368;28;20032;-69
2020/12/16 02:37:33;;;;;;;53.13;21.40;;;;;;;6.44;90.08;101376.22;5069938;28;20025;-69
2020/12/16 02:39:59;;;;;;;55.33;25.50;;;;;;;6.43;90.22;101384.31;5071284;28;20041;-69
2020/12/16 02:42:28;;;;;;;56.92;22.88;;;;;;;6.40;89.80;101381.91;5070247;28;20043;-69
2020/12/16 02:44:57;;;;;;;45.40;21.65;;;;;;;6.39;89.68;101374.88;5070314;28;20043;-69
2020/12/16 02:47:31;;;;;;;39.13;18.75;;;;;;;6.40;89.36;101377.44;5069935;28;20472;-69
2020/12/16 02:49:56;;;;;;;40.07;16.17;;;;;;;6.38;88.64;101375.88;5070050;28;20036;-69
2020/12/16 02:52:22;;;;;;;36.83;19.67;;;;;;;6.39;88.28;101382.84;5070201;28;20067;-69
2020/12/16 02:54:47;;;;;;;34.30;16.60;;;;;;;6.42;87.96;101380.81;5072280;28;20033;-69
2020/12/16 02:57:34;;;;;;;35.88;15.50;;;;;;;6.42;87.95;101374.66;5073901;28;20055;-69
2020/12/16 03:00:05;;;;;;;36.05;16.60;;;;;;;6.41;87.46;101373.81;5074245;28;20037;-69
2020/12/16 03:02:49;;;;;;;34.92;16.73;;;;;;;6.42;87.38;101378.16;5074221;28;20079;-69
2020/12/16 03:05:49;;;;;;;39.13;17.63;;;;;;;6.49;87.38;101370.56;5032816;28;20050;-69
2020/12/16 03:08:32;;;;;;;42.72;17.75;;;;;;;6.50;87.36;101369.59;5068578;28;20541;-69
2020/12/16 03:11:02;;;;;;;39.95;18.10;;;;;;;6.49;87.61;101367.91;5073934;28;20028;-69
2020/12/16 03:13:28;;;;;;;42.63;17.25;;;;;;;6.50;88.00;101366.94;5073941;28;20033;-69
2020/12/16 03:15:54;;;;;;;41.03;19.35;;;;;;;6.50;87.63;101375.72;5073674;28;20472;-69
2020/12/16 03:18:21;;;;;;;39.60;17.58;;;;;;;6.53;87.29;101374.66;5057334;28;20032;-69
2020/12/16 03:20:48;;;;;;;44.75;18.25;;;;;;;6.54;87.61;101386.97;5057574;28;20074;-69
2020/12/16 03:23:14;;;;;;;39.35;17.90;;;;;;;6.52;87.45;101391.53;5073801;28;20057;-69
2020/12/16 03:26:05;;;;;;;47.55;20.58;;;;;;;6.53;87.53;101382.59;5054812;28;20044;-69
2020/12/16 03:28:52;;;;;;;40.10;17.77;;;;;;;6.50;87.70;101388.16;5073792;28;20373;-69
2020/12/16 03:31:36;;;;;;;39.67;16.42;;;;;;;6.50;87.67;101385.50;5073518;28;20078;-69
2020/12/16 03:34:13;;;;;;;40.53;18.23;;;;;;;6.51;87.56;101387.22;5073550;28;20111;-69
2020/12/16 03:36:58;;;;;;;44.40;20.58;;;;;;;6.50;87.51;101390.81;5073791;28;20454;-69
2020/12/16 03:39:24;;;;;;;39.50;18.63;;;;;;;6.47;87.56;101393.72;5056930;28;20028;-69
2020/12/16 03:41:51;;;;;;;39.45;17.42;;;;;;;6.50;87.70;101393.47;5056851;28;20040;-69
2020/12/16 03:44:17;;;;;;;41.70;18.60;;;;;;;6.49;87.72;101405.06;5056670;28;20132;-69
2020/12/16 03:46:52;;;;;;;38.05;19.35;;;;;;;6.46;87.65;101399.97;5073037;28;20043;-69
2020/12/16 03:49:18;;;;;;;50.25;18.90;;;;;;;6.51;87.60;101408.44;5056846;28;20369;-69
2020/12/16 03:51:51;;;;;;;47.35;20.65;;;;;;;6.54;87.54;101405.53;5073217;28;20517;-68
2020/12/16 03:54:17;;;;;;;39.25;17.58;;;;;;;6.58;86.58;101407.00;5073202;28;20144;-69
2020/12/16 03:56:51;;;;;;;35.80;17.20;;;;;;;6.60;85.93;101415.66;5072798;28;20033;-69
2020/12/16 03:59:52;;;;;;;43.17;18.20;;;;;;;6.54;86.25;101424.94;5032137;28;20132;-68
2020/12/16 04:02:41;;;;;;;45.88;20.05;;;;;;;6.56;86.60;101432.78;5071623;28;20106;-69
2020/12/16 04:05:14;;;;;;;46.25;18.98;;;;;;;6.51;86.94;101440.28;5072737;28;20039;-69
2020/12/16 04:07:40;;;;;;;39.47;17.30;;;;;;;6.51;87.14;101438.47;5072756;28;20353;-69
2020/12/16 04:10:37;;;;;;;47.17;19.60;;;;;;;6.51;87.32;101445.56;5073720;28;20109;-69
2020/12/16 04:13:03;;;;;;;42.93;19.20;;;;;;;6.43;87.86;101447.97;5072878;28;20028;-69
2020/12/16 04:15:28;;;;;;;47.73;22.03;;;;;;;6.40;88.49;101464.13;5073469;28;20036;-69
2020/12/16 04:17:54;;;;;;;40.08;17.20;;;;;;;6.38;88.73;101461.56;5072553;28;20110;-69
2020/12/16 04:20:22;;;;;;;48.13;22.30;;;;;;;6.38;88.95;101460.75;5072726;28;20036;-69
2020/12/16 04:22:53;;;;;;;54.25;23.10;;;;;;;6.38;89.04;101466.88;5072671;28;20033;-69
2020/12/16 04:25:18;;;;;;;50.47;18.23;;;;;;;6.41;88.81;101465.81;5072607;28;20484;-69
2020/12/16 04:27:45;;;;;;;42.13;19.38;;;;;;;6.50;87.75;101467.75;5072286;28;20037;-69
2020/12/16 04:30:10;;;;;;;44.28;19.80;;;;;;;6.51;87.40;101472.09;5072544;28;20037;-69
2020/12/16 04:32:43;;;;;;;36.28;18.40;;;;;;;6.52;86.55;101468.47;5056815;28;20036;-68
2020/12/16 04:35:11;;;;;;;44.70;19.98;;;;;;;6.51;86.53;101474.75;5072471;28;20762;-68
2020/12/16 04:37:38;;;;;;;38.38;18.48;;;;;;;6.52;86.27;101471.97;5072052;28;20047;-69
2020/12/16 04:40:04;;;;;;;42.13;17.80;;;;;;;6.54;86.32;101480.66;5072343;28;20036;-69
2020/12/16 04:42:30;;;;;;;47.40;21.27;;;;;;;6.52;86.52;101468.47;5071961;28;20032;-69
2020/12/16 04:44:56;;;;;;;39.35;18.67;;;;;;;6.49;86.41;101463.41;5072307;28;20051;-69
2020/12/16 04:47:27;;;;;;;41.10;19.92;;;;;;;6.49;86.69;101466.06;5071919;28;20094;-69
2020/12/16 04:50:00;;;;;;;45.10;20.80;;;;;;;6.47;86.94;101468.00;5072260;28;20090;-69
2020/12/16 04:52:32;;;;;;;48.13;21.02;;;;;;;6.46;86.84;101464.50;5072129;28;20036;-68
2020/12/16 04:55:16;;;;;;;43.28;19.73;;;;;;;6.38;87.13;101458.09;5072016;28;20036;-68
2020/12/16 04:57:57;;;;;;;49.53;20.95;;;;;;;6.39;87.40;101473.03;5071872;28;20043;-68
2020/12/16 05:00:24;;;;;;;44.35;20.65;;;;;;;6.34;87.61;101482.19;5072943;28;20066;-69
2020/12/16 05:03:08;;;;;;;47.40;19.45;;;;;;;6.36;87.54;101494.50;5071731;28;20039;-69
2020/12/16 05:05:52;;;;;;;41.55;18.63;;;;;;;6.38;87.10;101488.09;5071846;28;20406;-68
2020/12/16 05:08:17;;;;;;;37.77;17.50;;;;;;;6.43;86.84;101493.06;5072684;28;20029;-68
2020/12/16 05:10:45;;;;;;;42.17;18.03;;;;;;;6.42;86.83;101496.69;5071792;28;20040;-69
2020/12/16 05:13:12;;;;;;;36.50;19.42;;;;;;;6.41;86.63;101492.31;5071608;28;20178;-69
2020/12/16 05:15:39;;;;;;;39.22;17.25;;;;;;;6.41;86.67;101497.63;5071273;28;20069;-68
2020/12/16 05:18:21;;;;;;;43.47;19.58;;;;;;;6.39;86.82;101504.84;5070817;28;20450;-68
2020/12/16 05:20:52;;;;;;;40.05;17.60;;;;;;;6.38;87.03;101513.78;5072579;28;20385;-68
2020/12/16 05:23:19;;;;;;;48.28;17.85;;;;;;;6.41;86.64;101513.53;5071388;28;20105;-68
2020/12/16 05:26:08;;;;;;;36.20;16.75;;;;;;;6.49;85.50;101513.81;5072047;28;20087;-68
2020/12/16 05:28:35;;;;;;;32.33;16.95;;;;;;;6.52;85.32;101509.09;5072308;28;20037;-68
2020/12/16 05:31:04;;;;;;;;;;;;;;;6.51;85.18;101503.94;5072826;28;20032;-69
2020/12/16 05:33:30;;;;;;;38.40;17.58;;;;;;;6.48;85.42;101499.69;5072205;28;19923;-68
2020/12/16 05:35:55;;;;;;;33.10;13.53;;;;;;;6.51;85.12;101498.63;5071831;28;20032;-69
2020/12/16 05:38:22;;;;;;;33.50;15.67;;;;;;;6.53;85.24;101507.28;5072133;28;20282;-68
2020/12/16 05:40:47;;;;;;;37.97;14.90;;;;;;;6.52;85.02;101505.63;5071141;28;20037;-68
2020/12/16 05:43:28;;;;;;;38.60;14.15;;;;;;;6.50;85.17;101513.69;5054349;28;20472;-68
2020/12/16 05:45:54;;;;;;;31.63;16.08;;;;;;;6.49;85.77;101508.50;5071657;28;20032;-69
2020/12/16 05:48:19;;;;;;;34.43;16.40;;;;;;;6.49;85.87;101511.16;5071916;28;20496;-68
2020/12/16 05:50:57;;;;;;;37.53;16.05;;;;;;;6.45;86.28;101512.34;5071873;28;20037;-69
2020/12/16 05:53:27;;;;;;;37.78;14.45;;;;;;;6.44;86.17;101518.59;5071705;28;20043;-69
2020/12/16 05:55:57;;;;;;;39.70;16.20;;;;;;;6.44;86.18;101513.28;5070508;28;20062;-69
2020/12/16 05:58:26;;;;;;;35.72;16.15;;;;;;;6.43;85.61;101516.94;5071798;28;20047;-68
2020/12/16 06:01:05;;;;;;;31.52;15.05;;;;;;;6.44;85.75;101521.25;5071000;28;20051;-68
2020/12/16 06:03:38;;;;;;;36.10;14.68;;;;;;;6.43;86.13;101517.75;5071489;28;20029;-69
2020/12/16 06:06:10;;;;;;;34.58;16.40;;;;;;;6.43;86.25;101528.38;5070382;28;20036;-69
2020/12/16 06:08:37;;;;;;;46.28;16.95;;;;;;;6.38;86.14;101519.94;5070563;28;20036;-69
2020/12/16 06:11:06;;;;;;;;;;;;;;;6.39;86.28;101528.72;5071010;28;20043;-68
2020/12/16 06:13:32;;;;;;;40.70;15.63;;;;;;;6.37;86.24;101525.34;5071543;28;19942;-68
2020/12/16 06:16:02;;;;;;;33.83;15.75;;;;;;;6.36;86.19;101532.47;5070285;28;20032;-69
2020/12/16 06:18:29;;;;;;;42.38;17.60;;;;;;;6.35;86.20;101517.53;5071420;28;20055;-69
2020/12/16 06:20:54;;;;;;;;;;;;;;;6.37;86.27;101525.34;5071847;28;20041;-69
2020/12/16 06:23:23;;;;;;;34.30;14.40;;;;;;;6.38;86.18;101533.19;5071291;28;19943;-69
2020/12/16 06:25:51;;;;;;;44.90;18.55;;;;;;;6.34;86.05;101529.06;5070084;28;20425;-68
2020/12/16 06:28:17;;;;;;;39.65;16.65;;;;;;;6.36;86.18;101542.22;5070407;28;20036;-68
2020/12/16 06:31:05;;;;;;;35.42;17.73;;;;;;;6.38;85.88;101546.44;5070286;28;20036;-69
2020/12/16 06:33:35;;;;;;;38.30;16.42;;;;;;;6.35;85.92;101544.03;5053558;28;20423;-68
2020/12/16 06:36:06;;;;;;;32.63;17.40;;;;;;;6.33;85.76;101538.84;5070894;28;20044;-69
2020/12/16 06:38:43;;;;;;;36.92;17.23;;;;;;;6.37;86.10;101551.88;5071187;28;20032;-68
2020/12/16 06:41:17;;;;;;;37.42;16.52;;;;;;;6.37;85.73;101554.50;5070313;28;20086;-68
2020/12/16 06:43:44;;;;;;;33.17;15.35;;;;;;;6.36;85.63;101553.69;5071116;28;20081;-68
2020/12/16 06:46:30;;;;;;;43.05;17.33;;;;;;;6.36;85.38;101540.41;5069944;28;20048;-68
2020/12/16 06:48:56;;;;;;;39.28;17.67;;;;;;;6.33;85.62;101549.44;5070092;28;20044;-68
2020/12/16 06:51:23;;;;;;;46.05;18.60;;;;;;;6.33;85.83;101546.78;5071140;28;20032;-68
2020/12/16 06:54:03;;;;;;;42.67;18.88;;;;;;;6.32;85.85;101542.47;5069943;28;20024;-68
2020/12/16 06:56:28;;;;;;;31.35;15.55;;;;;;;6.31;85.78;101546.06;5070776;28;20044;-68
2020/12/16 06:58:54;;;;;;;43.97;18.42;;;;;;;6.30;86.13;101548.84;5070095;28;20036;-68
2020/12/16 07:01:19;;;;;;;34.67;15.07;;;;;;;6.25;85.97;101541.25;5070215;28;20060;-68
2020/12/16 07:03:45;;;;;;;46.97;18.20;;;;;;;6.18;86.61;101545.31;5070816;28;20036;-68
2020/12/16 07:06:29;;;;;;;40.17;17.33;;;;;;;6.17;86.79;101540.94;5070621;28;20432;-68
2020/12/16 07:09:22;;;;;;;44.00;18.08;;;;;;;6.15;87.06;101544.69;5071047;28;20037;-68
2020/12/16 07:11:49;;;;;;;39.72;17.40;;;;;;;6.13;87.02;101550.09;5070996;28;20118;-68
2020/12/16 07:14:19;;;;;;;41.25;17.00;;;;;;;6.17;86.81;101556.03;5053379;28;20040;-68
2020/12/16 07:16:45;;;;;;;43.22;18.95;;;;;;;6.19;87.05;101560.25;5070415;28;20115;-68
2020/12/16 07:19:35;;;;;;;34.85;17.63;;;;;;;6.21;86.68;101565.44;5069893;28;20465;-68
2020/12/16 07:22:22;;;;;;;60.80;19.60;;;;;;;6.23;86.57;101560.88;5069432;28;20121;-68
2020/12/16 07:24:52;;;;;;;35.78;18.63;;;;;;;6.21;86.52;101560.16;5070726;28;20036;-68
2020/12/16 07:27:26;;;;;;;40.03;18.83;;;;;;;6.23;86.58;101561.72;5069458;28;20064;-69
2020/12/16 07:29:58;;;;;;;36.97;18.00;;;;;;;6.28;86.40;101561.38;5070798;28;20503;-68
2020/12/16 07:32:24;;;;;;;37.63;16.90;;;;;;;6.28;86.24;101564.88;5070656;28;20444;-68
2020/12/16 07:34:56;;;;;;;41.50;17.70;;;;;;;6.33;86.00;101570.66;5069430;28;20032;-68
2020/12/16 07:37:28;;;;;;;39.67;16.33;;;;;;;6.36;85.70;101568.75;5067422;28;20090;-68
2020/12/16 07:39:56;;;;;;;48.88;19.13;;;;;;;6.36;85.79;101574.06;5069683;28;20055;-68
2020/12/16 07:42:27;;;;;;;35.58;17.45;;;;;;;6.37;85.49;101581.03;5073823;28;20040;-68
2020/12/16 07:44:55;;;;;;;41.42;17.25;;;;;;;6.35;85.82;101573.22;5073261;28;20040;-68
2020/12/16 07:47:20;;;;;;;42.05;17.90;;;;;;;6.38;85.76;101582.75;5072894;28;20143;-68
2020/12/16 07:49:46;;;;;;;34.50;14.73;;;;;;;6.31;85.80;101577.06;5074268;28;20115;-68
2020/12/16 07:52:12;;;;;;;40.10;18.73;;;;;;;6.38;85.56;101588.06;5056444;28;20457;-68
2020/12/16 07:54:37;;;;;;;42.72;16.75;;;;;;;6.39;85.44;101584.44;5073268;28;20131;-69
2020/12/16 07:57:03;;;;;;;37.33;17.35;;;;;;;6.40;85.12;101575.53;5073768;28;20521;-68
2020/12/16 07:59:31;;;;;;;35.63;15.53;;;;;;;6.38;85.20;101582.75;5071363;28;20040;-68
2020/12/16 08:02:11;;;;;;;38.15;16.95;;;;;;;6.42;84.90;101584.22;5054542;28;20275;-68
2020/12/16 08:04:38;;;;;;;33.50;14.32;;;;;;;6.45;84.26;101578.66;5071978;28;20474;-68
2020/12/16 08:07:18;;;;;;;36.75;16.75;;;;;;;6.54;83.79;101580.63;5071994;28;20071;-68
2020/12/16 08:09:51;;;;;;;39.55;16.75;;;;;;;6.52;83.55;101580.75;5072211;28;20044;-68
2020/12/16 08:12:18;;;;;;;28.75;13.25;;;;;;;6.56;82.94;101591.97;5072168;28;20052;-68
2020/12/16 08:14:43;;;;;;;27.55;14.02;;;;;;;6.58;82.86;101590.06;5055548;28;20044;-68
2020/12/16 08:17:09;;;;;;;26.60;15.07;;;;;;;6.58;83.08;101589.19;5073417;28;20040;-68
2020/12/16 08:19:34;;;;;;;30.30;14.60;;;;;;;6.59;82.61;101597.03;5073748;28;20282;-68
2020/12/16 08:22:15;;;;;;;31.50;14.13;;;;;;;6.60;82.61;101608.50;5073657;28;20932;-68
2020/12/16 08:24:42;;;;;;;32.97;13.43;;;;;;;6.68;82.01;101612.28;5072536;28;20495;-68
2020/12/16 08:27:08;;;;;;;34.78;12.13;;;;;;;6.71;81.71;101611.19;5055508;28;20060;-68
2020/12/16 08:29:37;;;;;;;24.95;12.13;;;;;;;6.75;81.47;101618.81;5072455;28;20461;-68
2020/12/16 08:32:04;;;;;;;29.08;14.23;;;;;;;6.75;82.02;101613.50;5072414;28;20418;-68
2020/12/16 08:34:31;;;;;;;32.47;13.55;;;;;;;6.79;81.62;101623.88;5072511;28;20050;-68
2020/12/16 08:37:01;;;;;;;33.22;12.73;;;;;;;6.74;82.18;101622.44;5073060;28;20032;-68
2020/12/16 08:39:27;;;;;;;36.72;12.75;;;;;;;6.67;81.66;101621.22;5073377;28;20540;-68
2020/12/16 08:41:55;;;;;;;27.83;13.80;;;;;;;6.71;81.90;101638.56;5073185;28;20151;-68
2020/12/16 08:44:23;;;;;;;38.17;14.05;;;;;;;6.72;81.90;101639.44;5073262;28;20056;-68
2020/12/16 08:46:50;;;;;;;30.70;13.45;;;;;;;6.74;81.67;101630.41;5072857;28;20032;-68
2020/12/16 08:49:21;;;;;;;31.65;13.27;;;;;;;6.75;80.95;101632.06;5073165;28;20047;-68
2020/12/16 08:51:46;;;;;;;31.55;14.32;;;;;;;6.78;80.82;101627.50;5071194;28;20090;-68
2020/12/16 08:54:17;;;;;;;25.83;11.60;;;;;;;6.81;80.57;101632.56;5072265;28;20032;-68
2020/12/16 08:57:03;;;;;;;22.30;11.40;;;;;;;6.83;80.48;101631.47;5072593;28;20300;-68
2020/12/16 08:59:30;;;;;;;29.25;14.55;;;;;;;6.87;80.87;101634.78;5072680;28;20126;-68
2020/12/16 09:02:09;;;;;;;30.48;13.18;;;;;;;6.88;80.45;101636.44;5054972;28;20078;-68
2020/12/16 09:04:37;;;;;;;25.52;12.40;;;;;;;6.89;80.71;101644.31;5071119;28;20517;-68
2020/12/16 09:07:23;;;;;;;27.77;10.65;;;;;;;6.98;79.72;101648.06;5071863;28;20045;-68
2020/12/16 09:09:48;;;;;;;19.35;11.75;;;;;;;7.01;80.23;101650.50;5068619;28;20062;-68
2020/12/16 09:12:15;;;;;;;25.40;10.10;;;;;;;7.04;80.10;101647.59;5072659;28;20036;-68
2020/12/16 09:14:52;;;;;;;30.77;12.27;;;;;;;7.06;80.16;101653.63;5071760;28;20033;-68
2020/12/16 09:17:17;;;;;;;20.48;10.60;;;;;;;7.03;80.51;101643.25;5072157;28;20046;-68
2020/12/16 09:19:43;;;;;;;27.42;13.00;;;;;;;7.00;80.59;101659.44;5072719;28;20056;-68
2020/12/16 09:22:09;;;;;;;26.33;12.90;;;;;;;6.99;80.89;101663.03;5072564;28;20042;-68
2020/12/16 09:24:34;;;;;;;26.70;13.03;;;;;;;6.98;80.90;101659.53;5072403;28;20135;-68
2020/12/16 09:27:05;;;;;;;28.30;13.90;;;;;;;6.98;80.94;101661.34;5072056;28;20037;-68
2020/12/16 09:29:31;;;;;;;26.95;13.68;;;;;;;7.00;81.04;101658.56;5052403;28;20037;-68
2020/12/16 09:32:16;;;;;;;25.03;13.43;;;;;;;7.04;81.08;101662.69;5051215;28;20104;-68
2020/12/16 09:34:44;;;;;;;29.20;13.48;;;;;;;7.03;80.73;101659.19;5051328;28;20032;-68
2020/12/16 09:37:21;;;;;;;24.30;13.32;;;;;;;7.12;81.42;101658.47;5051907;28;20029;-68
2020/12/16 09:39:47;;;;;;;31.40;13.55;;;;;;;7.21;81.30;101661.38;5051289;28;20116;-68
2020/12/16 09:42:18;;;;;;;28.58;14.23;;;;;;;7.18;81.56;101667.78;5051918;28;20431;-68
2020/12/16 09:44:46;;;;;;;32.42;14.40;;;;;;;7.13;81.38;101660.16;5051939;28;20056;-68
2020/12/16 09:47:22;;;;;;;36.03;15.82;;;;;;;7.08;82.21;101662.34;5051676;28;20098;-68
2020/12/16 09:49:57;;;;;;;;;;;;;;;7.14;82.96;101674.28;5060498;28;20029;-68
2020/12/16 09:52:23;;;;;;;39.58;18.90;;;;;;;7.19;83.48;101680.09;5070990;28;19998;-68
2020/12/16 09:54:49;;;;;;;;;;;;;;;7.22;84.07;101679.03;5071324;28;20036;-68
2020/12/16 09:57:14;;;;;;;;;;;;;;;7.24;84.43;101682.41;5070668;28;19926;-68
2020/12/16 09:59:39;;;;;;;48.53;21.50;;;;;;;7.15;84.83;101671.53;5071650;28;19917;-68
2020/12/16 10:02:05;;;;;;;46.13;22.30;;;;;;;7.14;85.12;101671.63;5071680;28;20036;-68
2020/12/16 10:04:31;;;;;;;52.60;24.77;;;;;;;7.32;85.04;101669.38;5071212;28;20056;-68
2020/12/16 10:06:56;;;;;;;45.58;22.90;;;;;;;7.83;84.75;101669.75;5071240;28;20089;-68
2020/12/16 10:09:21;;;;;;;47.47;24.13;;;;;;;8.58;81.87;101669.97;5071544;28;20067;-68
2020/12/16 10:11:50;;;;;;;43.40;21.30;;;;;;;9.20;79.38;101661.19;5070502;28;20172;-68
2020/12/16 10:14:17;;;;;;;44.13;21.58;;;;;;;8.90;79.38;101658.44;5071597;28;20086;-68
2020/12/16 10:16:49;;;;;;;44.13;21.20;;;;;;;9.77;77.18;101663.44;5070016;28;20860;-68
2020/12/16 10:19:16;;;;;;;36.60;19.45;;;;;;;10.51;74.28;101661.22;5071422;28;20032;-68
2020/12/16 10:21:42;;;;;;;42.58;22.13;;;;;;;10.39;73.47;101653.47;5053844;28;20044;-68
2020/12/16 10:24:08;;;;;;;40.05;20.95;;;;;;;10.31;73.14;101655.03;5053600;28;20049;-68
2020/12/16 10:26:34;;;;;;;39.30;19.38;;;;;;;9.79;73.83;101659.66;5071114;28;20427;-68
2020/12/16 10:29:00;;;;;;;39.72;18.90;;;;;;;10.36;72.69;101654.59;5070349;28;20108;-68
2020/12/16 10:31:25;;;;;;;40.38;19.13;;;;;;;10.68;72.96;101651.66;5070236;28;20093;-68
2020/12/16 10:33:50;;;;;;;35.30;18.60;;;;;;;10.89;70.17;101656.84;5070134;28;20032;-68
2020/12/16 10:36:16;;;;;;;33.87;17.43;;;;;;;11.23;68.77;101664.38;5070990;28;20037;-68
2020/12/16 10:38:41;;;;;;;33.27;17.20;;;;;;;11.50;68.57;101650.25;5071064;28;20036;-68
2020/12/16 10:41:06;;;;;;;29.53;16.73;;;;;;;12.31;65.57;101652.22;5071170;28;20032;-68
2020/12/16 10:43:32;;;;;;;29.57;17.30;;;;;;;12.06;66.40;101652.94;5071081;28;20059;-68
2020/12/16 10:45:58;;;;;;;26.95;16.10;;;;;;;12.21;64.37;101656.81;5069869;28;20036;-68
2020/12/16 10:48:23;;;;;;;29.93;15.33;;;;;;;12.51;63.15;101646.75;5071039;28;20361;-68
2020/12/16 10:50:49;;;;;;;26.93;15.80;;;;;;;11.69;65.96;101654.66;5071181;28;20036;-68
2020/12/16 10:53:14;;;;;;;25.53;15.00;;;;;;;11.69;67.03;101652.00;5070916;28;20047;-68
2020/12/16 10:55:39;;;;;;;28.27;15.77;;;;;;;11.28;67.72;101651.41;5070795;28;20398;-68
2020/12/16 10:58:04;;;;;;;29.60;15.83;;;;;;;11.31;68.07;101650.31;5071030;28;20343;-68
2020/12/16 11:00:30;;;;;;;28.27;15.03;;;;;;;11.40;65.51;101642.25;5071113;28;20357;-68
2020/12/16 11:02:55;;;;;;;31.17;16.43;;;;;;;11.37;67.18;101650.56;5069841;28;20162;-68
2020/12/16 11:05:21;;;;;;;27.50;14.63;;;;;;;11.38;66.65;101649.56;5071058;28;20046;-68
2020/12/16 11:07:46;;;;;;;31.93;16.63;;;;;;;11.40;66.57;101650.28;5069556;28;20131;-68
2020/12/16 11:10:11;;;;;;;31.20;16.83;;;;;;;11.61;66.22;101657.22;5053133;28;20068;-68
2020/12/16 11:12:37;;;;;;;33.73;17.90;;;;;;;10.80;68.51;101657.72;5070978;28;20028;-68
2020/12/16 11:15:02;;;;;;;32.97;17.87;;;;;;;10.52;69.95;101654.91;5071657;28;20040;-68
2020/12/16 11:17:28;;;;;;;39.08;18.45;;;;;;;9.84;71.97;101660.06;5074519;28;20040;-68
2020/12/16 11:19:53;;;;;;;38.57;18.87;;;;;;;10.14;72.11;101653.84;5074632;28;20037;-68
2020/12/16 11:22:18;;;;;;;31.07;16.90;;;;;;;10.19;71.32;101655.25;5073765;28;20051;-68
2020/12/16 11:24:44;;;;;;;37.57;18.70;;;;;;;9.88;73.32;101655.31;5073619;28;20029;-68
2020/12/16 11:27:09;;;;;;;35.03;19.83;;;;;;;9.37;75.21;101649.06;5073425;28;20040;-68
2020/12/16 11:29:35;;;;;;;43.57;21.10;;;;;;;9.30;75.91;101645.25;5056894;28;20086;-68
2020/12/16 11:32:03;;;;;;;43.63;19.43;;;;;;;9.70;73.62;101642.63;5072149;28;20047;-68